WetterOnline ( https://www.wetteronline.de )

Wetter aktuell Klein Heikeland

Aktuelles Wetter: Norderney (16m)

6-stündlich | Neueste Meldungen
Ortszeit Temperatur Wetter
Fr, 02.12. 7:00 4.3° C bewölkt
Fr, 02.12. 1:00 3.2° C bedeckt
Do, 01.12. 19:00 4.7° C bedeckt
Do, 01.12. 13:00 5.3° C bedeckt
Do, 01.12. 7:00 6.3° C bewölkt
Do, 01.12. 1:00 5.7° C bedeckt
Mi, 30.11. 19:00 6.1° C bedeckt
Mi, 30.11. 13:00 5.9° C bedeckt
Ortszeit Temperatur Wetter
Fr, 02.12. 10:00 2.7° C bedeckt
Fr, 02.12. 9:50 2.7° C bedeckt
Fr, 02.12. 9:40 2.7° C bedeckt
Fr, 02.12. 9:30 2.4° C bedeckt
Fr, 02.12. 9:20 2.4° C bedeckt
Fr, 02.12. 9:10 2.3° C Dunst
Fr, 02.12. 9:00 2.5° C bedeckt
Fr, 02.12. 8:30 3.0° C bedeckt
Fr, 02.12. 8:00 3.8° C bewölkt
Fr, 02.12. 7:30 4.1° C Sprühregen
Fr, 02.12. 7:00 4.3° C bewölkt
Ortszeit Relative Feuchte Sichtweite
Fr, 02.12. 7:00 82% 15 km
Fr, 02.12. 1:00 88% 10 km
Do, 01.12. 19:00 86% 7 km
Do, 01.12. 13:00 86% 6 km
Do, 01.12. 7:00 82% 20 km
Do, 01.12. 1:00 91% 4.6 km
Mi, 30.11. 19:00 91% 7 km
Mi, 30.11. 13:00 91% 6 km
Ortszeit Relative Feuchte Sichtweite
Fr, 02.12. 10:00 85% 16 km
Fr, 02.12. 9:50 85% -
Fr, 02.12. 9:40 88% -
Fr, 02.12. 9:30 92% 8 km
Fr, 02.12. 9:20 92% -
Fr, 02.12. 9:10 92% -
Fr, 02.12. 9:00 90% 8 km
Fr, 02.12. 8:30 87% 14 km
Fr, 02.12. 8:00 83% 14 km
Fr, 02.12. 7:30 83% 14 km
Fr, 02.12. 7:00 82% 15 km
Ortszeit Niederschlagsmenge Niederschlagsart
Fr, 02.12. 7:00 0.1 l/m2 in 12 Std. Regen
Fr, 02.12. 1:00 0.0 l/m2 in 6 Std. -
Do, 01.12. 19:00 0.1 l/m2 in 12 Std. -
Do, 01.12. 13:00 0.1 l/m2 in 6 Std. Regen
Do, 01.12. 7:00 0.1 l/m2 in 12 Std. -
Do, 01.12. 1:00 0.1 l/m2 in 6 Std. Regen
Mi, 30.11. 19:00 0.1 l/m2 in 12 Std. -
Mi, 30.11. 13:00 0.1 l/m2 in 6 Std. Regen
Ortszeit Niederschlagsmenge Niederschlagsart
Fr, 02.12. 10:00 <0.05 l/m2 in 1 Std. Regen
Fr, 02.12. 9:50 keine Meldung -
Fr, 02.12. 9:40 keine Meldung -
Fr, 02.12. 9:30 <0.05 l/m2 in 1 Std. Schneeregen
Fr, 02.12. 9:20 keine Meldung -
Fr, 02.12. 9:10 keine Meldung -
Fr, 02.12. 9:00 <0.05 l/m2 in 1 Std. Regen
Fr, 02.12. 8:30 <0.05 l/m2 in 1 Std. Schneeregen
Fr, 02.12. 8:00 <0.05 l/m2 in 1 Std. Regen
Fr, 02.12. 7:30 <0.05 l/m2 in 1 Std. -
Fr, 02.12. 7:00 <0.05 l/m2 in 1 Std. Regen
Ortszeit Stärke Spitze Richtung
km/h Bft. km/h Grad Sektor
Fr, 02.12. 7:00 22 4 36 70° O
Fr, 02.12. 1:00 7 2 20 100° O
Do, 01.12. 19:00 11 2 25 120° SO
Do, 01.12. 13:00 13 3 30 100° O
Do, 01.12. 7:00 24 4 37 40° NO
Do, 01.12. 1:00 4 1 14 110° O
Mi, 30.11. 19:00 7 2 14 70° O
Mi, 30.11. 13:00 7 2 19 80° O
Ortszeit Stärke Spitze Richtung
km/h Bft. km/h Grad Sektor
Fr, 02.12. 10:00 20 4 33 90° O
Fr, 02.12. 9:50 20 4 - 90° O
Fr, 02.12. 9:40 19 3 - 90° O
Fr, 02.12. 9:30 14 3 29 90° O
Fr, 02.12. 9:20 14 3 - 90° O
Fr, 02.12. 9:10 14 3 - 90° O
Fr, 02.12. 9:00 14 3 36 90° O
Fr, 02.12. 8:30 22 4 36 80° O
Fr, 02.12. 8:00 22 4 43 80° O
Fr, 02.12. 7:30 29 5 43 70° O
Fr, 02.12. 7:00 22 4 36 70° O
Ortszeit Untergrenze Bedeckung Gattung
total tief tief mittel hoch
Fr, 02.12. 7:00 570 m 8/8 7/8 - - -
Fr, 02.12. 1:00 630 m 8/8 8/8 - - -
Do, 01.12. 19:00 660 m 8/8 8/8 - - -
Do, 01.12. 13:00 600 m 8/8 8/8 - - -
Do, 01.12. 7:00 1230 m 7/8 7/8 - - -
Do, 01.12. 1:00 810 m 8/8 8/8 - - -
Mi, 30.11. 19:00 390 m 8/8 8/8 - - -
Mi, 30.11. 13:00 420 m 8/8 8/8 - - -
Ortszeit Bedeckungsgrad in Achtel und Wolkenuntergrenze
Fr, 02.12. 10:00 8(930m) 8(1500m)
Fr, 02.12. 9:50 8(930m) 8(1500m)
Fr, 02.12. 9:40 8
Fr, 02.12. 9:30 3(270m) 7(1020m) 8(1500m)
Fr, 02.12. 9:20 3(270m) 7(1020m) 8(1500m)
Fr, 02.12. 9:10 8
Fr, 02.12. 9:00 1(240m) 8(2400m) 8(3600m)
Fr, 02.12. 8:30 2(540m) 6(1230m) 8(1500m)
Fr, 02.12. 8:00 7(510m)
Fr, 02.12. 7:30 7(570m) 7(1230m) 8(3300m)
Fr, 02.12. 7:00 3(570m) 7(930m) 8(3300m)
Ortszeit Luftdruck NN (hPa) Tendenz (hPa in 3 Std.)
Fr, 02.12. 7:00 1027 - 0,7
Fr, 02.12. 1:00 1029 - 0,3
Do, 01.12. 19:00 1029 + 0,3
Do, 01.12. 13:00 1029 - 0,4
Do, 01.12. 7:00 1028 + 0,1
Do, 01.12. 1:00 1028 + 0,3
Mi, 30.11. 19:00 1027 + 1,0
Mi, 30.11. 13:00 1026 + 0,4
Ortszeit Luftdruck NN (hPa) Tendenz (hPa in 3 Std.)
Fr, 02.12. 10:00 1028 + 1,0
Fr, 02.12. 9:50 1028 keine Meldung
Fr, 02.12. 9:40 1028 keine Meldung
Fr, 02.12. 9:30 1028 + 1,0
Fr, 02.12. 9:20 1028 keine Meldung
Fr, 02.12. 9:10 1028 keine Meldung
Fr, 02.12. 9:00 1028 + 0,7
Fr, 02.12. 8:30 1028 + 0,2
Fr, 02.12. 8:00 1028 - 0,2
Fr, 02.12. 7:30 1027 - 0,4
Fr, 02.12. 7:00 1027 - 0,7
Ortszeit Schneehöhe (cm)
Fr, 02.12. 7:00 0
Fr, 02.12. 1:00 0
Do, 01.12. 19:00 0
Do, 01.12. 13:00 0
Do, 01.12. 7:00 0
Do, 01.12. 1:00 0
Mi, 30.11. 19:00 0
Mi, 30.11. 13:00 0
Ortszeit Schneehöhe (cm)
Fr, 02.12. 10:00 0
Fr, 02.12. 9:50 0
Fr, 02.12. 9:40 0
Fr, 02.12. 9:30 0
Fr, 02.12. 9:20 0
Fr, 02.12. 9:10 0
Fr, 02.12. 9:00 0
Fr, 02.12. 8:30 0
Fr, 02.12. 8:00 0
Fr, 02.12. 7:30 0
Fr, 02.12. 7:00 0
Link zu dieser Seite / Seite empfehlen

Das Wetter in ...